createdAt,value
2022-08-07T00:00:40.068Z,0.90
2022-08-07T00:02:48.736Z,1.13
2022-08-07T00:04:57.104Z,1.10
2022-08-07T00:07:09.574Z,1.23
2022-08-07T00:09:22.427Z,1.20
2022-08-07T00:11:33.065Z,1.20
2022-08-07T00:13:44.996Z,1.30
2022-08-07T00:15:54.969Z,1.70
2022-08-07T00:18:03.265Z,1.00
2022-08-07T00:20:15.618Z,1.23
2022-08-07T00:22:37.834Z,1.20
2022-08-07T00:24:46.608Z,1.10
2022-08-07T00:27:06.177Z,0.97
2022-08-07T00:29:18.151Z,1.10
2022-08-07T00:31:37.303Z,1.30
2022-08-07T00:33:47.596Z,1.10
2022-08-07T00:35:57.896Z,1.20
2022-08-07T00:38:06.707Z,1.20
2022-08-07T00:40:15.350Z,1.20
2022-08-07T00:42:43.804Z,1.23
2022-08-07T00:44:58.509Z,1.10
2022-08-07T00:47:16.133Z,1.27
2022-08-07T00:50:21.414Z,1.30
2022-08-07T00:52:07.708Z,1.30
2022-08-07T00:54:19.908Z,0.90
2022-08-07T00:56:30.216Z,1.00
2022-08-07T00:58:46.811Z,0.90
2022-08-07T01:00:57.845Z,1.10
2022-08-07T01:03:08.052Z,1.13
2022-08-07T01:05:24.742Z,1.13
2022-08-07T01:07:33.107Z,1.40
2022-08-07T01:10:07.011Z,1.20
2022-08-07T01:12:29.582Z,1.20
2022-08-07T01:14:38.828Z,1.00
2022-08-07T01:16:54.173Z,0.90
2022-08-07T01:19:04.540Z,1.10
2022-08-07T01:21:28.961Z,1.00
2022-08-07T01:23:38.651Z,1.03
2022-08-07T01:25:55.741Z,1.13
2022-08-07T01:28:04.712Z,1.00
2022-08-07T01:30:13.795Z,1.10
2022-08-07T01:32:27.787Z,1.10
2022-08-07T01:34:37.355Z,0.90
2022-08-07T01:36:58.129Z,0.90
2022-08-07T01:39:10.255Z,0.90
2022-08-07T01:41:26.305Z,1.00
2022-08-07T01:43:38.285Z,1.10
2022-08-07T01:45:47.282Z,1.00
2022-08-07T01:48:29.168Z,1.00
2022-08-07T01:50:34.035Z,0.87
2022-08-07T01:52:49.702Z,0.90
2022-08-07T01:55:04.715Z,1.03
2022-08-07T01:57:24.615Z,0.80
2022-08-07T01:59:43.688Z,0.80
2022-08-07T02:02:04.524Z,0.80
2022-08-07T02:04:18.688Z,0.90
2022-08-07T02:06:30.680Z,0.90
2022-08-07T02:08:43.943Z,0.90
2022-08-07T02:10:55.001Z,1.00
2022-08-07T02:13:05.869Z,1.00
2022-08-07T02:15:17.241Z,0.80
2022-08-07T02:17:34.196Z,0.83
2022-08-07T02:20:05.280Z,0.90
2022-08-07T02:22:20.204Z,0.80
2022-08-07T02:24:31.654Z,0.70
2022-08-07T02:26:41.013Z,0.90
2022-08-07T02:28:52.157Z,0.80
2022-08-07T02:31:18.662Z,0.90
2022-08-07T02:33:42.064Z,0.70
2022-08-07T02:36:28.316Z,0.80
2022-08-07T02:38:39.109Z,0.90
2022-08-07T02:41:04.083Z,0.80
2022-08-07T02:43:12.780Z,1.00
2022-08-07T02:46:00.491Z,1.20
2022-08-07T02:47:51.320Z,1.10
2022-08-07T02:50:01.990Z,0.90
2022-08-07T02:52:16.848Z,0.93
2022-08-07T02:54:31.981Z,0.73
2022-08-07T02:56:43.604Z,0.90
2022-08-07T02:58:55.407Z,0.80
2022-08-07T03:01:04.892Z,0.90
2022-08-07T03:03:22.534Z,0.80
2022-08-07T03:05:35.885Z,0.83
2022-08-07T03:08:07.618Z,0.80
2022-08-07T03:10:17.968Z,1.03
2022-08-07T03:12:30.902Z,0.90
2022-08-07T03:14:40.777Z,1.17
2022-08-07T03:16:57.504Z,0.80
2022-08-07T03:19:06.537Z,1.07
2022-08-07T03:21:18.970Z,0.77
2022-08-07T03:23:33.767Z,1.00
2022-08-07T03:26:00.128Z,0.90
2022-08-07T03:28:37.431Z,1.00
2022-08-07T03:30:43.608Z,0.90
2022-08-07T03:32:59.064Z,1.03
2022-08-07T03:35:18.423Z,0.80
2022-08-07T03:37:54.158Z,0.70
2022-08-07T03:40:16.232Z,0.90
2022-08-07T03:42:25.253Z,1.00
2022-08-07T03:44:37.052Z,0.93
2022-08-07T03:47:10.812Z,1.10
2022-08-07T03:49:13.944Z,0.83
2022-08-07T03:51:30.772Z,0.90
2022-08-07T03:54:05.607Z,0.80
2022-08-07T03:56:13.715Z,0.90
2022-08-07T03:59:05.708Z,1.00
2022-08-07T04:01:00.256Z,1.20
2022-08-07T04:03:10.023Z,0.90
2022-08-07T04:05:24.043Z,0.90
2022-08-07T04:07:45.157Z,0.80
2022-08-07T04:09:54.666Z,0.90
2022-08-07T04:12:24.668Z,0.90
2022-08-07T04:14:38.441Z,0.80
2022-08-07T04:16:58.150Z,0.80
2022-08-07T04:19:14.951Z,0.90
2022-08-07T04:21:23.822Z,1.10
2022-08-07T04:23:43.843Z,0.83
2022-08-07T04:26:03.711Z,1.00
2022-08-07T04:28:13.310Z,0.80
2022-08-07T04:30:39.612Z,0.90
2022-08-07T04:32:58.392Z,1.03
2022-08-07T04:35:11.402Z,1.10
2022-08-07T04:37:20.478Z,1.20
2022-08-07T04:39:35.798Z,1.10
2022-08-07T04:41:44.538Z,1.20
2022-08-07T04:44:13.232Z,0.80
2022-08-07T04:46:59.493Z,1.07
2022-08-07T04:49:18.316Z,0.90
2022-08-07T04:51:41.484Z,0.80
2022-08-07T04:54:01.826Z,0.90
2022-08-07T04:58:16.448Z,0.90
2022-08-07T05:01:33.344Z,1.10
2022-08-07T05:04:06.631Z,1.10
2022-08-07T05:06:23.585Z,1.00
2022-08-07T05:08:59.146Z,1.20
2022-08-07T05:11:19.050Z,1.30
2022-08-07T05:14:53.041Z,1.10
2022-08-07T05:16:08.631Z,1.00
2022-08-07T05:18:22.074Z,1.27
2022-08-07T05:20:36.074Z,1.40
2022-08-07T05:22:48.886Z,1.23
2022-08-07T05:24:59.723Z,1.20
2022-08-07T05:27:18.395Z,1.10
2022-08-07T05:29:51.046Z,1.00
2022-08-07T05:32:01.906Z,1.17
2022-08-07T05:34:15.837Z,1.30
2022-08-07T05:36:30.526Z,1.20
2022-08-07T05:39:00.673Z,1.20
2022-08-07T05:41:16.758Z,1.20
2022-08-07T05:43:43.438Z,1.20
2022-08-07T05:45:56.461Z,1.10
2022-08-07T05:48:07.136Z,1.40
2022-08-07T05:50:16.233Z,1.57
2022-08-07T05:52:32.573Z,1.20
2022-08-07T05:54:53.421Z,1.13
2022-08-07T05:57:05.158Z,1.67
2022-08-07T05:59:17.256Z,1.30
2022-08-07T06:01:35.927Z,1.30
2022-08-07T06:03:56.940Z,1.23
2022-08-07T06:06:09.771Z,1.50
2022-08-07T06:08:30.921Z,1.30
2022-08-07T06:10:42.923Z,1.20
2022-08-07T06:12:51.322Z,1.40
2022-08-07T06:15:02.951Z,1.10
2022-08-07T06:17:14.375Z,1.40
2022-08-07T06:19:57.496Z,1.53
2022-08-07T06:22:15.240Z,1.40
2022-08-07T06:24:52.437Z,1.40
2022-08-07T06:26:50.831Z,1.57
2022-08-07T06:29:01.356Z,1.40
2022-08-07T06:31:09.819Z,1.37
2022-08-07T06:33:18.763Z,1.30
2022-08-07T06:35:38.883Z,1.30
2022-08-07T06:37:47.790Z,1.40
2022-08-07T06:40:16.130Z,1.43
2022-08-07T06:42:37.471Z,1.67
2022-08-07T06:44:50.896Z,1.20
2022-08-07T06:47:12.516Z,1.40
2022-08-07T06:49:24.039Z,1.50
2022-08-07T06:51:49.696Z,1.33
2022-08-07T06:55:27.736Z,1.30
2022-08-07T06:56:49.343Z,1.47
2022-08-07T07:00:13.789Z,1.50
2022-08-07T07:01:33.267Z,1.30
2022-08-07T07:03:57.140Z,1.63
2022-08-07T07:06:10.994Z,1.60
2022-08-07T07:08:25.561Z,1.50
2022-08-07T07:10:35.871Z,1.70
2022-08-07T07:12:53.750Z,1.70
2022-08-07T07:15:20.372Z,1.37
2022-08-07T07:17:39.300Z,1.47
2022-08-07T07:19:59.206Z,1.60
2022-08-07T07:22:33.782Z,1.50
2022-08-07T07:24:38.922Z,1.53
2022-08-07T07:26:53.892Z,1.33
2022-08-07T07:29:56.364Z,1.23
2022-08-07T07:31:44.410Z,1.57
2022-08-07T07:34:00.045Z,1.60
2022-08-07T07:36:13.238Z,1.30
2022-08-07T07:38:24.634Z,1.30
2022-08-07T07:40:34.225Z,1.23
2022-08-07T07:42:47.021Z,1.50
2022-08-07T07:45:01.202Z,1.40
2022-08-07T07:47:14.330Z,1.30
2022-08-07T07:50:34.945Z,1.30
2022-08-07T07:52:03.383Z,1.43
2022-08-07T07:54:14.736Z,1.43
2022-08-07T07:56:30.047Z,1.20
2022-08-07T07:58:40.986Z,1.27
2022-08-07T08:00:54.129Z,1.50
2022-08-07T08:03:08.604Z,1.67
2022-08-07T08:05:18.916Z,1.40
2022-08-07T08:07:35.781Z,1.50
2022-08-07T08:10:05.079Z,1.30
2022-08-07T08:12:31.222Z,1.40
2022-08-07T08:14:43.460Z,1.47
2022-08-07T08:16:53.741Z,1.50
2022-08-07T08:19:17.341Z,1.50
2022-08-07T08:21:55.731Z,1.67
2022-08-07T08:24:36.131Z,1.50
2022-08-07T08:27:02.740Z,1.63
2022-08-07T08:29:19.205Z,1.50
2022-08-07T08:32:10.211Z,1.47
2022-08-07T08:34:01.739Z,1.90
2022-08-07T08:36:13.599Z,1.37
2022-08-07T08:38:29.867Z,1.40
2022-08-07T08:40:49.315Z,1.60
2022-08-07T08:43:04.742Z,1.87
2022-08-07T08:45:58.557Z,1.63
2022-08-07T08:48:06.071Z,1.57
2022-08-07T08:50:34.850Z,1.80
2022-08-07T08:52:56.518Z,1.70
2022-08-07T08:55:12.136Z,1.53
2022-08-07T08:57:36.504Z,1.80
2022-08-07T08:59:52.027Z,1.83
2022-08-07T09:02:10.872Z,1.63
2022-08-07T09:04:30.104Z,1.70
2022-08-07T09:06:47.979Z,1.80
2022-08-07T09:09:09.572Z,2.17
2022-08-07T09:11:50.550Z,2.07
2022-08-07T09:14:17.696Z,1.83
2022-08-07T09:16:35.729Z,1.93
2022-08-07T09:19:52.015Z,1.90
2022-08-07T09:22:09.894Z,1.67
2022-08-07T09:24:55.385Z,2.10
2022-08-07T09:27:12.086Z,1.90
2022-08-07T09:30:03.989Z,1.70
2022-08-07T09:32:17.318Z,1.97
2022-08-07T09:34:37.382Z,2.20
2022-08-07T09:36:56.507Z,1.87
2022-08-07T09:39:54.944Z,1.80
2022-08-07T09:42:05.687Z,2.30
2022-08-07T09:44:33.030Z,2.13
2022-08-07T09:47:49.519Z,2.13
2022-08-07T09:50:02.027Z,1.90
2022-08-07T09:52:33.611Z,2.03
2022-08-07T09:54:48.309Z,2.10
2022-08-07T09:57:25.001Z,1.93
2022-08-07T10:00:01.372Z,2.10
2022-08-07T10:02:29.480Z,2.43
2022-08-07T10:05:12.757Z,2.30
2022-08-07T10:07:52.935Z,2.37
2022-08-07T10:10:24.395Z,2.27
2022-08-07T10:13:15.745Z,2.13
2022-08-07T10:16:03.186Z,2.20
2022-08-07T10:18:35.281Z,2.33
2022-08-07T10:20:53.484Z,2.30
2022-08-07T10:24:05.194Z,2.20
2022-08-07T10:26:08.020Z,2.90
2022-08-07T10:28:39.455Z,2.10
2022-08-07T10:31:00.548Z,2.00
2022-08-07T10:34:06.652Z,1.90
2022-08-07T10:36:29.803Z,2.17
2022-08-07T10:38:51.620Z,1.90
2022-08-07T10:41:08.796Z,2.10
2022-08-07T10:43:34.424Z,1.87
2022-08-07T10:45:58.160Z,1.43
2022-08-07T10:48:22.605Z,1.53
2022-08-07T10:50:36.540Z,1.60
2022-08-07T10:52:56.887Z,2.00
2022-08-07T10:55:26.701Z,2.03
2022-08-07T10:57:56.140Z,1.80
2022-08-07T11:00:09.829Z,1.90
2022-08-07T11:02:49.156Z,1.97
2022-08-07T11:05:44.895Z,2.00
2022-08-07T11:08:06.475Z,1.67
2022-08-07T11:10:21.242Z,2.13
2022-08-07T11:12:43.390Z,2.03
2022-08-07T11:15:00.542Z,1.97
2022-08-07T11:17:23.341Z,1.93
2022-08-07T11:19:52.686Z,1.43
2022-08-07T11:22:18.752Z,1.60
2022-08-07T11:24:45.407Z,1.37
2022-08-07T11:27:01.304Z,1.33
2022-08-07T11:29:42.115Z,1.50
2022-08-07T11:31:49.230Z,1.43
2022-08-07T11:34:10.267Z,1.50
2022-08-07T11:36:37.127Z,1.50
2022-08-07T11:38:55.202Z,1.67
2022-08-07T11:41:18.199Z,1.60
2022-08-07T11:44:11.186Z,1.50
2022-08-07T11:46:23.387Z,1.60
2022-08-07T11:49:27.579Z,1.90
2022-08-07T11:51:40.791Z,2.07
2022-08-07T11:54:02.724Z,1.60
2022-08-07T11:56:35.474Z,1.60
2022-08-07T11:59:01.396Z,1.90
2022-08-07T12:01:25.698Z,1.43
2022-08-07T12:04:18.570Z,1.60
2022-08-07T12:06:51.579Z,1.77
2022-08-07T12:09:16.487Z,1.87
2022-08-07T12:11:43.371Z,1.40
2022-08-07T12:14:09.777Z,1.50
2022-08-07T12:16:30.071Z,1.30
2022-08-07T12:18:47.527Z,1.57
2022-08-07T12:21:21.015Z,1.80
2022-08-07T12:24:07.236Z,1.80
2022-08-07T12:26:40.519Z,1.80
2022-08-07T12:29:02.834Z,1.90
2022-08-07T12:31:22.309Z,1.60
2022-08-07T12:34:01.090Z,2.03
2022-08-07T12:36:02.748Z,2.07
2022-08-07T12:38:16.958Z,1.70
2022-08-07T12:40:47.348Z,2.10
2022-08-07T12:43:00.393Z,1.70
2022-08-07T12:45:13.870Z,1.50
2022-08-07T12:47:30.355Z,1.73
2022-08-07T12:49:51.398Z,2.13
2022-08-07T12:52:13.681Z,2.30
2022-08-07T12:54:38.376Z,2.03
2022-08-07T12:56:54.994Z,1.80
2022-08-07T12:59:08.423Z,2.00
2022-08-07T13:01:28.044Z,2.07
2022-08-07T13:04:05.117Z,2.07
2022-08-07T13:06:27.753Z,1.77
2022-08-07T13:08:42.950Z,1.60
2022-08-07T13:11:01.898Z,1.63
2022-08-07T13:13:47.865Z,1.70
2022-08-07T13:15:58.763Z,1.77
2022-08-07T13:18:25.797Z,1.63
2022-08-07T13:20:41.360Z,1.60
2022-08-07T13:23:03.946Z,1.70
2022-08-07T13:25:38.903Z,1.70
2022-08-07T13:28:11.560Z,1.50
2022-08-07T13:30:41.153Z,1.90
2022-08-07T13:32:57.475Z,1.70
2022-08-07T13:35:10.564Z,1.67
2022-08-07T13:37:28.911Z,1.37
2022-08-07T13:40:34.313Z,1.77
2022-08-07T13:42:19.180Z,1.60
2022-08-07T13:44:37.055Z,1.83
2022-08-07T13:46:48.837Z,1.80
2022-08-07T13:49:02.105Z,1.67
2022-08-07T13:51:26.907Z,1.53
2022-08-07T13:53:59.422Z,1.60
2022-08-07T13:56:08.596Z,1.80
2022-08-07T13:58:40.354Z,1.53
2022-08-07T14:00:54.346Z,1.40
2022-08-07T14:03:07.145Z,1.50
2022-08-07T14:05:22.062Z,1.37
2022-08-07T14:07:34.361Z,1.40
2022-08-07T14:10:02.606Z,1.53
2022-08-07T14:12:27.391Z,1.40
2022-08-07T14:14:43.624Z,1.70
2022-08-07T14:16:56.405Z,1.40
2022-08-07T14:19:17.826Z,1.50
2022-08-07T14:22:04.095Z,1.43
2022-08-07T14:24:29.396Z,1.50
2022-08-07T14:26:50.668Z,1.57
2022-08-07T14:29:08.625Z,1.50
2022-08-07T14:31:42.927Z,1.80
2022-08-07T14:34:01.247Z,1.77
2022-08-07T14:36:17.477Z,1.50
2022-08-07T14:38:31.269Z,1.50
2022-08-07T14:40:41.847Z,1.87
2022-08-07T14:43:57.321Z,1.43
2022-08-07T14:45:46.736Z,1.50
2022-08-07T14:47:59.756Z,1.40
2022-08-07T14:50:11.571Z,1.63
2022-08-07T14:54:54.811Z,1.30
2022-08-07T14:57:06.770Z,1.60
2022-08-07T15:01:51.256Z,1.47
2022-08-07T15:04:05.808Z,1.30
2022-08-07T15:06:15.569Z,1.53
2022-08-07T15:08:32.672Z,1.60
2022-08-07T15:10:59.005Z,1.60
2022-08-07T15:13:17.048Z,1.70
2022-08-07T15:15:40.730Z,2.07
2022-08-07T15:17:58.490Z,2.53
2022-08-07T15:20:33.083Z,2.43
2022-08-07T15:22:53.863Z,2.63
2022-08-07T15:28:02.011Z,2.00
2022-08-07T15:30:16.884Z,1.90
2022-08-07T15:32:39.990Z,1.80
2022-08-07T15:34:58.340Z,1.83
2022-08-07T15:37:10.882Z,1.77
2022-08-07T15:39:20.055Z,2.20
2022-08-07T15:42:43.603Z,1.97
2022-08-07T15:44:30.802Z,2.77
2022-08-07T15:46:42.651Z,2.63
2022-08-07T15:49:12.413Z,2.57
2022-08-07T15:53:54.096Z,2.77
2022-08-07T15:56:05.987Z,1.87
2022-08-07T15:58:19.309Z,1.60
2022-08-07T16:00:34.192Z,1.50
2022-08-07T16:02:46.560Z,1.50
2022-08-07T16:04:58.148Z,1.50
2022-08-07T16:08:29.174Z,1.73
2022-08-07T16:09:42.603Z,1.67
2022-08-07T16:11:57.658Z,1.47
2022-08-07T16:14:09.132Z,1.30
2022-08-07T16:16:48.023Z,1.30
2022-08-07T16:19:04.283Z,1.17
2022-08-07T16:21:53.939Z,1.10
2022-08-07T16:23:58.792Z,1.20
2022-08-07T16:26:14.285Z,1.37
2022-08-07T16:30:07.390Z,1.40
2022-08-07T16:31:09.992Z,1.40
2022-08-07T16:34:03.156Z,1.60
2022-08-07T16:35:58.794Z,1.50
2022-08-07T16:38:12.214Z,1.40
2022-08-07T16:40:57.418Z,1.40
2022-08-07T16:43:11.676Z,1.20
2022-08-07T16:46:40.521Z,1.63
2022-08-07T16:48:28.524Z,1.20
2022-08-07T16:51:21.034Z,1.60
2022-08-07T16:54:01.837Z,1.30
2022-08-07T16:55:54.848Z,1.10
2022-08-07T16:58:07.947Z,1.50
2022-08-07T17:00:30.101Z,1.27
2022-08-07T17:02:53.211Z,1.63
2022-08-07T17:06:02.450Z,1.67
2022-08-07T17:07:55.937Z,1.60
2022-08-07T17:10:30.080Z,1.30
2022-08-07T17:12:44.092Z,1.30
2022-08-07T17:14:55.792Z,1.30
2022-08-07T17:17:12.123Z,1.30
2022-08-07T17:20:02.361Z,1.43
2022-08-07T17:21:55.623Z,1.20
2022-08-07T17:24:32.867Z,1.77
2022-08-07T17:26:51.303Z,1.20
2022-08-07T17:29:09.554Z,1.30
2022-08-07T17:32:02.621Z,1.63
2022-08-07T17:34:33.670Z,1.47
2022-08-07T17:36:57.975Z,1.20
2022-08-07T17:39:22.947Z,1.43
2022-08-07T17:42:03.476Z,1.40
2022-08-07T17:44:33.317Z,1.60
2022-08-07T17:46:52.441Z,1.57
2022-08-07T17:49:09.125Z,1.60
2022-08-07T17:51:23.134Z,1.50
2022-08-07T17:54:00.165Z,1.50
2022-08-07T17:56:28.673Z,1.47
2022-08-07T17:58:46.373Z,1.63
2022-08-07T18:00:58.152Z,1.43
2022-08-07T18:03:18.496Z,1.40
2022-08-07T18:06:01.591Z,1.50
2022-08-07T18:08:16.460Z,1.63
2022-08-07T18:10:39.037Z,1.43
2022-08-07T18:13:23.038Z,1.70
2022-08-07T18:15:42.426Z,1.40
2022-08-07T18:18:46.909Z,1.97
2022-08-07T18:21:10.002Z,1.90
2022-08-07T18:23:42.369Z,2.20
2022-08-07T18:25:47.771Z,2.50
2022-08-07T18:28:34.247Z,2.27
2022-08-07T18:30:59.748Z,2.20
2022-08-07T18:33:55.083Z,2.40
2022-08-07T18:36:17.720Z,2.10
2022-08-07T18:40:05.705Z,2.13
2022-08-07T18:41:45.646Z,1.97
2022-08-07T18:44:01.601Z,1.87
2022-08-07T18:46:22.373Z,2.00
2022-08-07T18:50:30.355Z,1.77
2022-08-07T18:52:35.071Z,1.63
2022-08-07T18:54:27.608Z,1.83
2022-08-07T18:57:23.565Z,1.67
2022-08-07T18:59:46.681Z,1.70
2022-08-07T19:02:20.068Z,1.50
2022-08-07T19:04:56.182Z,1.60
2022-08-07T19:07:17.743Z,1.53
2022-08-07T19:09:55.793Z,1.57
2022-08-07T19:12:18.041Z,1.87
2022-08-07T19:14:51.074Z,1.73
2022-08-07T19:17:16.137Z,1.50
2022-08-07T19:19:54.127Z,1.80
2022-08-07T19:22:11.477Z,1.63
2022-08-07T19:24:30.476Z,1.60
2022-08-07T19:28:28.331Z,1.67
2022-08-07T19:31:01.229Z,1.93
2022-08-07T19:32:08.023Z,1.70
2022-08-07T19:34:33.853Z,1.53
2022-08-07T19:36:52.210Z,1.70
2022-08-07T19:39:09.315Z,1.50
2022-08-07T19:41:38.974Z,1.67
2022-08-07T19:43:59.886Z,1.83
2022-08-07T19:46:11.447Z,1.40
2022-08-07T19:48:24.844Z,1.73
2022-08-07T19:50:43.876Z,1.60
2022-08-07T19:52:59.245Z,1.80
2022-08-07T19:55:13.364Z,1.67
2022-08-07T19:58:01.029Z,1.70
2022-08-07T19:59:59.694Z,1.80
2022-08-07T20:02:12.344Z,2.00
2022-08-07T20:04:31.438Z,1.80
2022-08-07T20:06:50.001Z,1.80
2022-08-07T20:09:03.037Z,1.93
2022-08-07T20:11:34.309Z,1.93
2022-08-07T20:13:47.121Z,1.90
2022-08-07T20:15:58.435Z,2.00
2022-08-07T20:18:14.619Z,1.87
2022-08-07T20:20:29.605Z,1.90
2022-08-07T20:22:47.116Z,2.00
2022-08-07T20:25:03.619Z,1.80
2022-08-07T20:27:42.969Z,1.90
2022-08-07T20:29:59.362Z,1.70
2022-08-07T20:32:22.915Z,1.63
2022-08-07T20:34:50.167Z,1.83
2022-08-07T20:37:00.818Z,1.80
2022-08-07T20:40:03.004Z,2.00
2022-08-07T20:41:50.607Z,1.90
2022-08-07T20:44:02.031Z,1.70
2022-08-07T20:46:28.202Z,2.10
2022-08-07T20:48:39.635Z,2.10
2022-08-07T20:51:09.643Z,2.10
2022-08-07T20:53:18.626Z,2.10
2022-08-07T20:55:56.286Z,2.00
2022-08-07T20:58:08.967Z,2.00
2022-08-07T21:00:22.593Z,1.90
2022-08-07T21:02:54.226Z,2.13
2022-08-07T21:05:10.305Z,2.00
2022-08-07T21:07:28.295Z,2.10
2022-08-07T21:09:51.982Z,2.03
2022-08-07T21:12:15.108Z,2.23
2022-08-07T21:14:32.969Z,2.47
2022-08-07T21:16:56.807Z,1.73
2022-08-07T21:19:16.039Z,2.10
2022-08-07T21:21:33.186Z,2.40
2022-08-07T21:24:04.080Z,2.00
2022-08-07T21:26:22.910Z,1.90
2022-08-07T21:28:49.492Z,2.20
2022-08-07T21:31:08.052Z,2.23
2022-08-07T21:33:22.629Z,2.40
2022-08-07T21:36:05.320Z,2.10
2022-08-07T21:38:10.087Z,2.30
2022-08-07T21:40:35.931Z,2.23
2022-08-07T21:42:53.045Z,2.40
2022-08-07T21:46:05.123Z,2.30
2022-08-07T21:47:50.202Z,2.10
2022-08-07T21:50:04.340Z,2.33
2022-08-07T21:52:17.928Z,2.00
2022-08-07T21:54:58.453Z,1.97
2022-08-07T21:57:39.532Z,2.30
2022-08-07T22:00:04.239Z,2.10
2022-08-07T22:02:20.379Z,1.97
2022-08-07T22:04:31.760Z,2.33
2022-08-07T22:06:50.232Z,2.50
2022-08-07T22:09:06.984Z,2.40
2022-08-07T22:11:19.622Z,2.40
2022-08-07T22:13:50.248Z,2.50
2022-08-07T22:16:42.301Z,2.30
2022-08-07T22:18:39.318Z,2.40
2022-08-07T22:21:02.645Z,2.50
2022-08-07T22:23:23.795Z,2.40
2022-08-07T22:25:42.342Z,1.90
2022-08-07T22:28:07.651Z,2.10
2022-08-07T22:30:26.356Z,2.40
2022-08-07T22:32:42.149Z,2.40
2022-08-07T22:34:55.461Z,2.40
2022-08-07T22:37:12.433Z,2.60
2022-08-07T22:39:51.771Z,2.60
2022-08-07T22:42:19.415Z,2.47
2022-08-07T22:44:34.716Z,2.17
2022-08-07T22:47:06.102Z,2.43
2022-08-07T22:49:39.608Z,2.27
2022-08-07T22:52:36.934Z,2.90
2022-08-07T22:55:22.719Z,2.50
2022-08-07T22:57:56.359Z,2.10
2022-08-07T23:00:14.808Z,2.40
2022-08-07T23:03:01.907Z,2.53
2022-08-07T23:06:14.910Z,2.70
2022-08-07T23:08:55.733Z,2.33
2022-08-07T23:11:15.582Z,2.60
2022-08-07T23:13:48.859Z,2.40
2022-08-07T23:16:46.855Z,2.40
2022-08-07T23:19:13.874Z,2.50
2022-08-07T23:21:30.296Z,2.80
2022-08-07T23:24:17.281Z,2.40
2022-08-07T23:26:31.871Z,2.43
2022-08-07T23:29:43.280Z,2.53
2022-08-07T23:34:18.585Z,2.60
2022-08-07T23:35:01.218Z,2.57
2022-08-07T23:37:33.734Z,2.63
2022-08-07T23:40:09.694Z,3.07
2022-08-07T23:42:34.252Z,2.97
2022-08-07T23:45:04.699Z,2.90
2022-08-07T23:47:30.335Z,2.97
2022-08-07T23:50:16.288Z,3.03
2022-08-07T23:53:00.394Z,2.87
2022-08-07T23:55:51.879Z,2.90
2022-08-07T23:57:48.303Z,3.20
